Time;durP1;ratioP1;P1;durP2;ratioP2;P2;SDS_P1;SDS_P2;PMS_P1;PMS_P2;Temp;Humidity;BMP_temperature;BMP_pressure;BME280_temperature;BME280_humidity;BME280_pressure;Samples;Min_cycle;Max_cycle;Signal;HPM_P1;HPM_P2
2021/01/28 00:02:51;;;;;;;63.65;26.20;;;;;;;-0.68;78.75;100152.78;4877065;59;1140413;-89
2021/01/28 00:07:58;;;;;;;63.33;30.53;;;;;;;-0.65;78.92;100153.97;4898829;59;1140351;-89
2021/01/28 00:13:07;;;;;;;74.12;30.12;;;;;;;-0.66;78.64;100144.48;4880141;59;1140636;-89
2021/01/28 00:18:15;;;;;;;88.57;39.10;;;;;;;-0.66;78.70;100143.19;4927452;59;1140388;-89
2021/01/28 00:23:21;;;;;;;89.97;38.57;;;;;;;-0.60;79.22;100136.89;4871479;59;1140626;-90
2021/01/28 00:28:26;;;;;;;72.50;32.57;;;;;;;-0.54;79.13;100123.69;4956649;59;1140604;-89
2021/01/28 00:33:32;;;;;;;74.27;33.13;;;;;;;-0.51;79.30;100118.37;4877237;59;1140575;-89
2021/01/28 00:38:40;;;;;;;61.33;29.15;;;;;;;-0.49;78.89;100118.72;4932260;59;1140532;-88
2021/01/28 00:43:45;;;;;;;52.65;24.15;;;;;;;-0.56;78.60;100114.65;4874462;59;1140548;-89
2021/01/28 00:48:51;;;;;;;57.97;25.87;;;;;;;-0.58;78.63;100113.02;4910857;58;1140720;-89
2021/01/28 00:53:57;;;;;;;75.32;33.18;;;;;;;-0.60;78.70;100110.47;4899221;59;1140506;-89
2021/01/28 00:59:03;;;;;;;79.83;34.20;;;;;;;-0.62;78.87;100101.92;4903624;59;1140510;-89
2021/01/28 01:04:09;;;;;;;71.03;28.93;;;;;;;-0.58;79.12;100081.39;4934955;59;1140531;-89
2021/01/28 01:09:14;;;;;;;61.80;27.23;;;;;;;-0.54;79.25;100063.49;4904300;59;1140389;-88
2021/01/28 01:14:24;;;;;;;65.30;29.07;;;;;;;-0.60;78.92;100052.48;4877700;59;1140621;-89
2021/01/28 01:19:30;;;;;;;60.70;26.13;;;;;;;-0.65;78.87;100042.75;4880241;59;1140752;-88
2021/01/28 01:24:41;;;;;;;63.80;26.10;;;;;;;-0.66;79.03;100037.17;4922507;59;1140485;-89
2021/01/28 01:29:46;;;;;;;60.33;26.37;;;;;;;-0.69;79.31;100038.13;4884412;59;1140668;-89
2021/01/28 01:34:56;;;;;;;56.60;25.63;;;;;;;-0.71;79.18;100031.69;4871947;59;1140483;-89
2021/01/28 01:40:03;;;;;;;65.03;26.67;;;;;;;-0.73;79.30;100030.91;4870510;59;1140834;-90
2021/01/28 01:45:11;;;;;;;57.47;26.13;;;;;;;-0.77;79.40;100018.12;4896447;59;1141208;-90
2021/01/28 01:50:53;;;;;;;50.33;23.33;;;;;;;-0.71;79.62;100007.48;4882375;59;1140454;-89
2021/01/28 01:56:09;;;;;;;35.67;17.87;;;;;;;-0.77;79.99;99994.30;4912742;59;1140911;-89
2021/01/28 02:01:17;;;;;;;56.15;23.67;;;;;;;-0.77;79.99;99994.30;4878945;59;1138482;-91
2021/01/28 02:06:44;;;;;;;35.38;16.20;;;;;;;-0.79;79.67;99987.48;4948094;59;1138279;-88
2021/01/28 02:12:07;;;;;;;57.50;23.93;;;;;;;-0.82;80.11;99992.34;4939748;58;1138319;-89
2021/01/28 02:17:22;;;;;;;36.70;15.63;;;;;;;-0.89;79.42;99963.61;4880305;58;1138437;-88
2021/01/28 02:22:46;;;;;;;46.80;20.33;;;;;;;-0.89;79.42;99963.61;4915581;59;1138257;-89
2021/01/28 02:27:53;;;;;;;49.47;21.30;;;;;;;-0.93;79.75;99950.84;4896942;59;1138404;-89
2021/01/28 02:33:01;;;;;;;55.03;25.97;;;;;;;-0.94;79.75;99943.95;4825636;59;1138317;-89
2021/01/28 02:38:21;;;;;;;42.43;17.90;;;;;;;-0.90;79.75;99919.09;4886921;60;1138587;-90
2021/01/28 02:43:28;;;;;;;41.92;18.55;;;;;;;-0.84;79.85;99898.55;4900906;58;1138278;-89
2021/01/28 02:48:35;;;;;;;45.92;19.73;;;;;;;-0.89;79.45;99892.69;4894398;59;1136215;-90
2021/01/28 02:53:49;;;;;;;40.55;17.87;;;;;;;-0.94;79.51;99876.02;4922879;59;1138551;-90
2021/01/28 02:58:56;;;;;;;49.60;22.77;;;;;;;-0.93;79.56;99870.38;4884704;59;1138706;-89
2021/01/28 03:04:04;;;;;;;45.80;20.10;;;;;;;-0.94;79.62;99866.94;4942979;58;1138317;-90
2021/01/28 03:09:11;;;;;;;42.03;17.00;;;;;;;-0.92;79.77;99868.18;4880255;59;1138503;-89
2021/01/28 03:14:17;;;;;;;45.50;18.03;;;;;;;-0.92;79.80;99867.72;4897369;59;1138797;-89
2021/01/28 03:19:25;;;;;;;50.93;22.00;;;;;;;-0.92;79.80;99849.56;4903956;59;1138463;-89
2021/01/28 03:24:35;;;;;;;27.63;12.87;;;;;;;-0.89;79.85;99839.48;4974445;57;1138295;-89
2021/01/28 03:29:41;;;;;;;51.30;22.20;;;;;;;-0.87;79.81;99825.53;4912498;59;1138289;-89
2021/01/28 03:34:47;;;;;;;28.75;12.78;;;;;;;-0.84;79.78;99813.73;4922428;59;1138370;-89
2021/01/28 03:39:54;;;;;;;35.13;14.33;;;;;;;-0.82;79.76;99814.96;4964170;59;1138505;-89
2021/01/28 03:44:59;;;;;;;32.70;13.30;;;;;;;-0.83;79.85;99808.08;4879870;59;1138357;-91
2021/01/28 03:50:09;;;;;;;32.17;14.50;;;;;;;-0.80;79.77;99794.98;4916396;59;1138490;-90
2021/01/28 03:55:16;;;;;;;32.93;12.87;;;;;;;-0.79;79.74;99787.58;4921387;57;1138304;-88
2021/01/28 04:00:29;;;;;;;32.57;15.00;;;;;;;-0.80;79.84;99782.84;4861715;59;1138341;-90
2021/01/28 04:05:37;;;;;;;46.50;19.13;;;;;;;-0.78;79.83;99774.98;4927911;58;1138624;-90
2021/01/28 04:10:54;;;;;;;26.10;12.37;;;;;;;-0.77;79.79;99759.35;4879530;59;1138371;-90
2021/01/28 04:16:00;;;;;;;31.93;14.23;;;;;;;-0.72;79.87;99748.74;4891115;59;1138864;-91
2021/01/28 04:21:06;;;;;;;26.43;11.83;;;;;;;-0.69;79.78;99736.09;4968806;57;1138229;-89
2021/01/28 04:26:12;;;;;;;32.90;17.20;;;;;;;-0.66;79.76;99722.98;5037024;56;1138645;-90
2021/01/28 04:31:20;;;;;;;20.53;10.37;;;;;;;-0.65;79.84;99716.42;5002512;57;1138286;-90
2021/01/28 04:36:26;;;;;;;43.33;17.63;;;;;;;-0.61;79.79;99697.66;5023559;56;1138317;-90
2021/01/28 04:41:50;;;;;;;23.32;9.13;;;;;;;-0.59;79.89;99682.36;5041870;56;1138688;-93
2021/01/28 04:46:58;;;;;;;40.63;19.43;;;;;;;-0.55;79.92;99678.73;5018900;56;1136843;-91
2021/01/28 04:52:19;;;;;;;30.43;14.90;;;;;;;-0.51;79.94;99675.08;5083452;56;1138807;-91
2021/01/28 04:57:27;;;;;;;30.87;14.13;;;;;;;-0.48;80.14;99666.31;5029985;56;1138789;-92
2021/01/28 05:02:33;;;;;;;36.60;16.53;;;;;;;-0.44;80.09;99654.84;5073961;56;1138808;-91
2021/01/28 05:07:56;;;;;;;37.65;18.30;;;;;;;-0.40;80.16;99649.45;5121905;56;1138520;-89
2021/01/28 05:13:36;;;;;;;36.88;16.87;;;;;;;-0.35;80.24;99655.73;5118262;56;1138177;-90
2021/01/28 05:19:04;;;;;;;17.03;8.30;;;;;;;-0.31;80.30;99634.36;5116373;56;1138840;-89
2021/01/28 05:24:40;;;;;;;36.07;17.60;;;;;;;-0.30;81.15;99631.66;5116950;56;1136330;-90
2021/01/28 05:29:49;;;;;;;30.77;15.68;;;;;;;-0.31;81.11;99617.47;5116902;56;1138300;-91
2021/01/28 05:34:54;;;;;;;40.23;19.97;;;;;;;-0.31;81.76;99607.92;5139783;56;1138485;-90
2021/01/28 05:40:24;;;;;;;35.03;14.83;;;;;;;-0.29;81.97;99606.52;5024727;57;1138269;-89
2021/01/28 05:45:39;;;;;;;25.47;12.40;;;;;;;-0.31;82.58;99601.89;4966943;58;1138254;-88
2021/01/28 05:50:46;;;;;;;30.97;16.43;;;;;;;-0.33;83.01;99582.93;5005250;57;1138387;-90
2021/01/28 05:55:53;;;;;;;38.17;17.48;;;;;;;-0.36;83.13;99583.91;5059230;57;1138586;-90
2021/01/28 06:01:06;;;;;;;38.55;18.25;;;;;;;-0.37;83.61;99566.19;5167881;56;1138197;-90
2021/01/28 06:06:24;;;;;;;27.53;14.23;;;;;;;-0.35;84.06;99551.83;5107139;56;1138557;-90
2021/01/28 06:11:58;;;;;;;43.13;19.50;;;;;;;-0.34;84.72;99557.86;5102598;56;1138439;-90
2021/01/28 06:17:31;;;;;;;27.17;12.33;;;;;;;-0.33;84.39;99557.80;4999764;57;1138452;-89
2021/01/28 06:23:23;;;;;;;26.82;14.25;;;;;;;-0.31;84.90;99542.98;4956949;58;1138340;-89
2021/01/28 06:28:53;;;;;;;38.50;19.63;;;;;;;-0.32;85.15;99543.89;4895315;58;1139233;-88
2021/01/28 06:34:25;;;;;;;22.60;10.90;;;;;;;-0.29;85.23;99527.28;4898974;58;1138345;-89
2021/01/28 06:39:51;;;;;;;24.47;13.13;;;;;;;-0.26;85.25;99533.18;4894210;58;1138873;-88
2021/01/28 06:45:27;;;;;;;26.90;14.53;;;;;;;-0.24;85.90;99518.36;4892689;58;1138282;-88
2021/01/28 06:51:35;;;;;;;33.40;15.83;;;;;;;-0.21;85.78;99510.42;4887398;59;1139773;-89
2021/01/28 06:56:54;;;;;;;22.95;11.85;;;;;;;-0.19;86.21;99502.09;4883709;59;1139931;-88
2021/01/28 07:02:49;;;;;;;27.40;13.97;;;;;;;-0.21;85.99;99493.98;4766295;60;1138676;-90
2021/01/28 07:08:14;;;;;;;27.30;13.33;;;;;;;-0.15;86.87;99502.30;4965408;58;1138727;-88
2021/01/28 07:13:32;;;;;;;19.50;10.93;;;;;;;-0.11;86.47;99499.09;4975391;58;1138415;-89
2021/01/28 07:19:12;;;;;;;23.47;12.55;;;;;;;-0.07;86.98;99496.73;4962460;58;1138673;-89
2021/01/28 07:24:31;;;;;;;24.03;12.83;;;;;;;-0.02;86.58;99494.75;4853914;59;1138704;-91
2021/01/28 07:29:47;;;;;;;16.13;8.57;;;;;;;0.02;87.27;99480.66;4857123;59;1138815;-90
2021/01/28 07:35:32;;;;;;;22.50;11.78;;;;;;;0.04;86.88;99477.52;4958611;58;1134295;-90
2021/01/28 07:41:09;;;;;;;20.63;12.20;;;;;;;0.07;87.06;99465.67;5067412;56;1136239;-91
2021/01/28 07:46:38;;;;;;;30.20;16.17;;;;;;;0.08;87.04;99467.36;5038860;57;1136674;-90
2021/01/28 07:52:01;;;;;;;17.30;9.33;;;;;;;0.10;87.07;99462.09;5043800;57;1136530;-91
2021/01/28 07:57:13;;;;;;;38.57;20.77;;;;;;;0.15;87.33;99456.20;5032256;57;1134070;-91
2021/01/28 08:02:36;;;;;;;82.77;47.43;;;;;;;0.17;87.55;99466.87;5095033;57;1136565;-89
2021/01/28 08:07:44;;;;;;;;;;;;;;;0.19;87.09;99461.14;4947387;58;1136699;-90
2021/01/28 08:13:03;;;;;;;23.22;11.18;;;;;;;0.21;87.42;99460.60;5030362;56;969635;-90
2021/01/28 08:18:26;;;;;;;21.07;12.77;;;;;;;0.22;87.37;99453.64;5048309;56;1134054;-89
2021/01/28 08:23:32;;;;;;;;;;;;;;;0.24;88.04;99453.11;5064553;57;1136479;-89
2021/01/28 08:28:41;;;;;;;38.37;20.60;;;;;;;0.27;87.70;99441.25;5061433;57;969427;-90
2021/01/28 08:33:51;;;;;;;22.97;9.70;;;;;;;0.29;88.04;99438.95;5094476;57;1134198;-90
2021/01/28 08:39:16;;;;;;;26.43;12.77;;;;;;;0.31;87.89;99430.58;5098738;56;1137016;-89
2021/01/28 08:44:22;;;;;;;25.80;14.30;;;;;;;0.32;88.33;99432.27;5118830;56;1136583;-89
2021/01/28 08:49:27;;;;;;;24.77;12.13;;;;;;;0.37;87.64;99425.98;4936206;57;1136458;-89
2021/01/28 08:54:40;;;;;;;32.53;19.40;;;;;;;0.37;88.25;99425.98;4949545;58;1136707;-90
2021/01/28 08:59:52;;;;;;;17.92;11.05;;;;;;;0.40;87.83;99434.47;4967147;58;1144794;-88
2021/01/28 09:05:20;;;;;;;29.47;16.70;;;;;;;0.38;87.86;99425.91;5016717;57;1136382;-88
2021/01/28 09:10:31;;;;;;;20.10;11.13;;;;;;;0.43;87.63;99423.07;5008013;57;1136791;-89
2021/01/28 09:15:37;;;;;;;29.07;15.37;;;;;;;0.46;87.78;99418.52;5045437;57;1136143;-89
2021/01/28 09:20:45;;;;;;;29.10;15.77;;;;;;;0.49;87.46;99412.31;4988810;57;1136184;-90
2021/01/28 09:26:25;;;;;;;19.95;11.85;;;;;;;0.53;87.32;99421.19;4983572;57;1136344;-89
2021/01/28 09:31:32;;;;;;;18.33;12.00;;;;;;;0.53;87.64;99415.98;4989323;57;1136604;-89
2021/01/28 09:36:39;;;;;;;19.73;12.53;;;;;;;0.53;87.70;99419.88;4972218;57;1136237;-89
2021/01/28 09:41:52;;;;;;;17.30;7.97;;;;;;;0.56;87.47;99411.92;4956276;58;1136315;-89
2021/01/28 09:47:20;;;;;;;16.10;10.28;;;;;;;0.58;88.80;99413.98;4918775;58;1134585;-88
2021/01/28 09:52:31;;;;;;;45.97;17.43;;;;;;;0.60;87.97;99400.89;4973417;57;1136492;-88
2021/01/28 09:57:37;;;;;;;28.57;13.87;;;;;;;0.60;88.15;99397.83;5039619;56;1136460;-90
2021/01/28 10:03:02;;;;;;;21.90;13.63;;;;;;;0.66;88.25;99384.47;5086447;56;1136618;-90
2021/01/28 10:08:10;;;;;;;26.63;14.50;;;;;;;0.72;87.96;99378.55;5070555;56;1136694;-90
2021/01/28 10:13:18;;;;;;;20.43;12.23;;;;;;;0.78;87.83;99387.30;5101849;56;1136600;-89
2021/01/28 10:18:33;;;;;;;22.70;11.17;;;;;;;0.84;87.67;99386.52;5081348;56;1136560;-89
2021/01/28 10:23:38;;;;;;;14.70;8.70;;;;;;;0.89;87.75;99383.66;5067243;56;1136519;-87
2021/01/28 10:28:44;;;;;;;17.40;8.50;;;;;;;0.91;87.73;99380.05;4930262;58;1134671;-87
2021/01/28 10:33:51;;;;;;;9.80;6.47;;;;;;;0.93;87.75;99389.89;5072523;56;1134232;-87
2021/01/28 10:38:56;;;;;;;17.25;9.08;;;;;;;0.93;88.47;99376.87;5082734;56;1132280;-87
2021/01/28 10:44:02;;;;;;;14.45;10.05;;;;;;;1.00;87.89;99369.57;4942391;58;1134717;-87
2021/01/28 10:49:08;;;;;;;20.57;10.37;;;;;;;1.07;88.15;99377.88;5084149;56;1136639;-87
2021/01/28 10:54:15;;;;;;;11.57;7.33;;;;;;;1.08;87.92;99376.93;5085039;56;1136991;-88
2021/01/28 10:59:20;;;;;;;11.47;7.07;;;;;;;1.12;87.73;99362.81;5120122;56;1134152;-87
2021/01/28 11:04:26;;;;;;;8.00;6.10;;;;;;;1.14;87.60;99360.50;5158944;56;1134510;-86
2021/01/28 11:09:32;;;;;;;19.67;12.03;;;;;;;1.15;87.46;99353.07;5046995;57;1132103;-87
2021/01/28 11:14:38;;;;;;;16.03;11.10;;;;;;;1.17;87.35;99342.11;5053695;56;1136479;-89
2021/01/28 11:19:44;;;;;;;13.50;9.00;;;;;;;1.20;87.26;99326.31;5061569;57;1136324;-87
2021/01/28 11:24:50;;;;;;;17.97;10.07;;;;;;;1.28;87.35;99316.73;5071609;57;1134374;-86
2021/01/28 11:29:58;;;;;;;14.68;8.65;;;;;;;1.37;87.23;99310.53;5075200;57;1136360;-87
2021/01/28 11:35:04;;;;;;;15.63;8.83;;;;;;;1.44;87.01;99315.36;5063077;56;1134469;-87
2021/01/28 11:40:10;;;;;;;24.07;13.10;;;;;;;1.48;87.00;99305.98;5099292;57;1134122;-88
2021/01/28 11:45:18;;;;;;;14.30;7.90;;;;;;;1.51;86.94;99304.97;5131998;56;1136578;-87
2021/01/28 11:50:23;;;;;;;16.53;8.97;;;;;;;1.54;86.96;99293.03;5062186;57;1134368;-87
2021/01/28 11:55:38;;;;;;;20.70;10.90;;;;;;;1.56;86.70;99283.36;5048844;56;1134374;-87
2021/01/28 12:00:42;;;;;;;12.90;7.60;;;;;;;1.55;86.47;99284.28;5071422;57;1136440;-88
2021/01/28 12:05:48;;;;;;;9.03;6.50;;;;;;;1.54;86.42;99276.93;5052427;57;1134956;-87
2021/01/28 12:10:54;;;;;;;9.43;6.03;;;;;;;1.53;86.28;99280.47;5098037;57;1132236;-88
2021/01/28 12:16:00;;;;;;;15.55;7.65;;;;;;;1.49;86.08;99286.81;5056169;57;1132492;-84
2021/01/28 12:21:05;;;;;;;14.70;7.43;;;;;;;1.50;86.09;99287.19;5056804;57;1134295;-87
2021/01/28 12:26:20;;;;;;;16.83;8.83;;;;;;;1.47;85.86;99279.55;5060698;56;1134533;-87
2021/01/28 12:31:19;;;;;;;20.25;9.70;;;;;;;1.44;85.22;99275.82;5052527;56;1134403;-87
2021/01/28 12:36:24;;;;;;;11.23;4.03;;;;;;;1.41;85.01;99272.93;5080559;57;1134403;-86
2021/01/28 12:41:32;;;;;;;6.43;4.40;;;;;;;1.43;84.94;99261.12;5051057;57;1134535;-86
2021/01/28 12:46:37;;;;;;;13.40;6.60;;;;;;;1.74;85.45;99246.59;5065239;57;1132332;-87
2021/01/28 12:51:43;;;;;;;16.57;6.80;;;;;;;2.10;85.66;99251.30;5061865;57;1134352;-86
2021/01/28 12:56:49;;;;;;;10.07;5.00;;;;;;;2.42;84.99;99249.70;5047219;57;1134565;-87
2021/01/28 13:01:55;;;;;;;9.85;4.75;;;;;;;2.53;82.70;99238.56;5058510;57;1134331;-87
2021/01/28 13:07:03;;;;;;;7.40;4.83;;;;;;;2.44;80.93;99232.19;5070662;56;1132249;-87
2021/01/28 13:12:09;;;;;;;7.53;4.70;;;;;;;2.46;81.20;99235.50;5082072;56;1132461;-87
2021/01/28 13:17:21;;;;;;;12.07;6.70;;;;;;;2.52;80.61;99229.06;5079085;56;1132492;-86
2021/01/28 13:22:27;;;;;;;14.13;6.50;;;;;;;2.27;80.71;99241.09;5073079;56;1134497;-87
2021/01/28 13:27:33;;;;;;;15.23;7.70;;;;;;;2.12;80.77;99242.07;5078578;56;1134208;-87
2021/01/28 13:32:38;;;;;;;48.77;21.73;;;;;;;1.96;81.06;99239.59;5020413;56;1135043;-87
2021/01/28 13:37:45;;;;;;;66.40;32.70;;;;;;;1.84;80.75;99236.42;4990289;57;1136443;-87
2021/01/28 13:42:51;;;;;;;105.77;49.07;;;;;;;1.76;81.39;99241.29;5007419;57;1136680;-87
2021/01/28 13:48:01;;;;;;;31.93;11.80;;;;;;;1.72;81.23;99245.84;5040908;57;1138228;-87
2021/01/28 13:53:08;;;;;;;35.40;16.60;;;;;;;1.69;81.10;99242.12;4982718;57;1136204;-87
2021/01/28 13:58:13;;;;;;;73.97;31.17;;;;;;;1.68;80.77;99251.37;5016654;57;1136391;-87
2021/01/28 14:03:19;;;;;;;23.17;11.70;;;;;;;1.62;81.07;99242.14;4961734;57;1136663;-87
2021/01/28 14:08:24;;;;;;;18.57;7.77;;;;;;;1.52;80.07;99246.72;4998903;57;1136181;-87
2021/01/28 14:13:30;;;;;;;18.13;9.30;;;;;;;1.52;80.32;99233.22;5054342;58;21261;-87
2021/01/28 14:18:38;;;;;;;14.63;6.37;;;;;;;1.43;79.19;99241.58;5023547;57;1129962;-87
2021/01/28 14:23:43;;;;;;;22.63;9.27;;;;;;;1.55;78.46;99231.70;5033640;57;1134098;-88
2021/01/28 14:28:49;;;;;;;24.83;11.63;;;;;;;1.64;78.28;99227.72;5013605;57;1134106;-87
2021/01/28 14:33:55;;;;;;;37.47;16.33;;;;;;;1.47;77.60;99225.30;4971074;58;1136285;-86
2021/01/28 14:39:01;;;;;;;31.55;15.20;;;;;;;1.31;76.09;99219.73;4897667;58;1136634;-87
2021/01/28 14:44:07;;;;;;;24.47;10.75;;;;;;;1.29;76.80;99218.98;4992434;57;1136328;-87
2021/01/28 14:49:12;;;;;;;16.67;9.95;;;;;;;1.25;76.69;99214.88;4968172;58;1136128;-87
2021/01/28 14:54:18;;;;;;;20.47;9.70;;;;;;;1.19;76.15;99212.66;5011742;58;1134268;-87
2021/01/28 14:59:23;;;;;;;35.20;16.57;;;;;;;1.10;76.35;99205.38;5010786;57;1134583;-85
2021/01/28 15:04:29;;;;;;;19.53;8.67;;;;;;;1.02;76.45;99201.11;4917856;58;1136226;-87
2021/01/28 15:09:35;;;;;;;29.37;9.93;;;;;;;0.90;75.57;99196.64;4953975;58;1134348;-87
2021/01/28 15:14:41;;;;;;;27.00;11.40;;;;;;;0.80;75.87;99190.28;4981198;58;1134227;-87
2021/01/28 15:19:47;;;;;;;168.90;67.27;;;;;;;0.74;75.90;99192.80;5042416;57;1136666;-87
2021/01/28 15:24:52;;;;;;;31.07;13.13;;;;;;;0.68;76.06;99191.38;5046883;57;1138816;-87
2021/01/28 15:29:59;;;;;;;33.70;13.57;;;;;;;0.60;76.12;99188.41;5018420;57;1136167;-86
2021/01/28 15:35:06;;;;;;;25.13;13.17;;;;;;;0.55;75.17;99191.72;4985539;57;1136496;-87
2021/01/28 15:40:13;;;;;;;9.23;4.17;;;;;;;0.48;75.74;99192.98;5011578;57;1136311;-86
2021/01/28 15:45:21;;;;;;;5.87;2.40;;;;;;;0.39;73.88;99197.42;4978405;57;1131936;-87
2021/01/28 15:50:27;;;;;;;12.85;3.80;;;;;;;0.28;73.20;99186.34;5030229;57;1132364;-87
2021/01/28 15:55:32;;;;;;;15.83;4.30;;;;;;;0.19;73.68;99189.45;4940841;58;1134333;-87
2021/01/28 16:00:40;;;;;;;57.10;11.83;;;;;;;0.14;74.26;99186.75;5043370;57;1134140;-87
2021/01/28 16:05:46;;;;;;;11.07;3.97;;;;;;;0.10;74.44;99185.23;5031700;57;1136734;-87
2021/01/28 16:10:52;;;;;;;10.50;4.27;;;;;;;0.10;74.79;99187.84;5047895;56;1134437;-87
2021/01/28 16:15:58;;;;;;;586.12;204.78;;;;;;;0.05;74.69;99191.98;5012898;57;1245426;-87
2021/01/28 16:21:05;;;;;;;108.33;31.20;;;;;;;-0.03;74.69;99185.94;5037765;57;1140386;-89
2021/01/28 16:26:11;;;;;;;601.87;234.07;;;;;;;-0.03;74.89;99195.48;5035790;57;1140407;-88
2021/01/28 16:31:16;;;;;;;80.83;26.40;;;;;;;-0.07;74.84;99197.88;5060548;57;1142552;-88
2021/01/28 16:36:22;;;;;;;28.20;8.40;;;;;;;-0.08;75.01;99203.99;5031379;57;1138315;-88
2021/01/28 16:42:00;;;;;;;27.53;10.40;;;;;;;-0.10;75.19;99209.27;4981718;57;1136672;-84
2021/01/28 16:47:12;;;;;;;58.10;26.30;;;;;;;-0.11;73.99;99206.29;4989373;57;1138686;-84
2021/01/28 16:52:18;;;;;;;27.52;10.88;;;;;;;-0.11;74.70;99207.59;5059650;57;1138395;-84
2021/01/28 16:57:23;;;;;;;77.93;35.23;;;;;;;-0.06;74.46;99211.24;5035896;57;1138665;-91
2021/01/28 17:02:29;;;;;;;66.87;27.17;;;;;;;-0.05;74.18;99210.33;5033228;56;1138305;-92
2021/01/28 17:07:35;;;;;;;57.73;23.03;;;;;;;-0.01;74.50;99217.88;5028781;57;1138401;-91
2021/01/28 17:12:42;;;;;;;40.87;14.23;;;;;;;0.04;74.83;99217.60;5019951;57;1138850;-91
2021/01/28 17:17:48;;;;;;;38.23;13.60;;;;;;;0.06;74.06;99217.52;5007907;57;1136468;-92
2021/01/28 17:22:54;;;;;;;24.20;8.03;;;;;;;0.04;74.42;99217.60;5046055;57;1136729;-91
2021/01/28 17:28:00;;;;;;;34.60;11.40;;;;;;;0.00;74.36;99216.12;5040751;57;1134394;-91
2021/01/28 17:33:07;;;;;;;26.90;9.93;;;;;;;-0.08;74.37;99207.89;4928860;57;1136553;-92
2021/01/28 17:38:13;;;;;;;22.53;7.60;;;;;;;-0.15;73.95;99209.13;4924780;58;1136220;-92
2021/01/28 17:43:19;;;;;;;38.97;13.20;;;;;;;-0.24;74.02;99214.84;4925251;58;1136864;-92
2021/01/28 17:48:32;;;;;;;19.60;6.80;;;;;;;-0.33;74.49;99213.59;5030529;57;1139256;-92
2021/01/28 17:53:38;;;;;;;30.73;10.57;;;;;;;-0.38;74.62;99209.09;5005970;57;1136281;-91
2021/01/28 17:58:44;;;;;;;12.40;4.73;;;;;;;-0.44;74.64;99217.20;5015978;58;1138776;-92
2021/01/28 18:03:49;;;;;;;10.93;4.77;;;;;;;-0.50;74.74;99215.80;4923817;58;1136587;-92
2021/01/28 18:08:55;;;;;;;12.33;3.97;;;;;;;-0.56;74.76;99221.30;4945571;58;1136566;-92
2021/01/28 18:14:01;;;;;;;167.43;82.53;;;;;;;-0.62;74.52;99226.00;5031899;57;1136571;-90
2021/01/28 18:19:08;;;;;;;20.97;8.03;;;;;;;-0.69;74.66;99227.22;5035568;57;1140523;-92
2021/01/28 18:24:17;;;;;;;9.40;4.10;;;;;;;-0.76;74.58;99223.64;5017866;57;1136451;-91
2021/01/28 18:29:23;;;;;;;25.40;9.50;;;;;;;-0.84;74.23;99224.51;5017030;57;1134209;-91
2021/01/28 18:34:30;;;;;;;17.10;5.80;;;;;;;-0.91;74.47;99221.84;5036702;57;1136150;-91
2021/01/28 18:39:36;;;;;;;19.13;6.87;;;;;;;-0.99;74.29;99222.70;4973475;58;1136536;-91
2021/01/28 18:44:42;;;;;;;38.13;16.17;;;;;;;-1.07;74.50;99224.37;5054708;57;1136883;-87
2021/01/28 18:55:54;;;;;;;320.67;96.50;;;;;;;-1.14;74.43;99232.56;5065058;56;1136925;-81
2021/01/28 19:01:03;;;;;;;105.47;44.80;;;;;;;-1.20;74.38;99227.67;4948641;57;1140866;-81
2021/01/28 19:06:08;;;;;;;22.70;10.88;;;;;;;-1.24;73.75;99233.95;4936969;57;1140816;-83
2021/01/28 19:11:21;;;;;;;19.10;7.40;;;;;;;-1.27;74.31;99238.83;4881522;59;1138636;-83
2021/01/28 19:16:25;;;;;;;9.87;4.07;;;;;;;-1.31;74.30;99233.86;4938412;58;1136644;-83
2021/01/28 19:21:30;;;;;;;7.53;3.37;;;;;;;-1.35;74.22;99226.68;4985286;57;1134143;-83
2021/01/28 19:26:36;;;;;;;8.90;3.83;;;;;;;-1.37;74.10;99227.20;4940803;57;1134753;-83
2021/01/28 19:31:42;;;;;;;7.37;2.98;;;;;;;-1.38;74.20;99229.45;4944141;57;1134614;-82
2021/01/28 19:36:50;;;;;;;10.80;3.93;;;;;;;-1.40;74.04;99223.95;4868467;58;1134579;-83
2021/01/28 19:41:55;;;;;;;11.70;4.00;;;;;;;-1.42;74.36;99224.87;4983214;57;1136444;-83
2021/01/28 19:47:01;;;;;;;15.33;5.27;;;;;;;-1.44;74.36;99229.28;4890542;59;1136167;-84
2021/01/28 19:52:19;;;;;;;8.80;3.85;;;;;;;-1.40;74.47;99226.09;4959363;58;1136357;-83
2021/01/28 19:57:29;;;;;;;10.87;4.00;;;;;;;-1.47;74.09;99226.84;4932225;58;1134297;-84
2021/01/28 20:02:37;;;;;;;12.13;3.97;;;;;;;-1.47;74.09;99226.84;4962146;58;1136419;-83
2021/01/28 20:07:46;;;;;;;9.70;4.47;;;;;;;-1.45;74.38;99237.98;5121715;57;1134229;-83
2021/01/28 20:12:51;;;;;;;10.57;4.13;;;;;;;-1.46;74.14;99238.89;4997534;58;1134323;-83
2021/01/28 20:17:56;;;;;;;15.13;4.60;;;;;;;-1.54;74.16;99228.07;5052252;57;1136290;-83
2021/01/28 20:23:02;;;;;;;5.80;1.70;;;;;;;-1.57;74.30;99217.00;5069890;57;1136350;-83
2021/01/28 20:28:09;;;;;;;15.70;4.83;;;;;;;-1.55;74.24;99230.28;5050551;57;1134312;-87
2021/01/28 20:33:14;;;;;;;4.30;2.33;;;;;;;-1.58;74.62;99225.69;5050301;57;1136570;-86
2021/01/28 20:38:20;;;;;;;5.10;2.47;;;;;;;-1.59;74.60;99235.68;4972107;58;1134358;-86
2021/01/28 20:43:26;;;;;;;10.27;3.43;;;;;;;-1.64;74.57;99229.41;4972660;57;1134276;-86
2021/01/28 20:48:32;;;;;;;17.00;6.04;;;;;;;-1.69;74.80;99227.52;4991796;57;1136571;-88
2021/01/28 20:53:38;;;;;;;9.30;3.47;;;;;;;-1.71;74.99;99224.61;4978540;58;1136533;-86
2021/01/28 20:58:43;;;;;;;12.10;3.87;;;;;;;-1.73;75.05;99219.95;4969509;56;1141524;-86
2021/01/28 21:03:49;;;;;;;5.45;1.80;;;;;;;-1.77;75.14;99220.55;5093786;56;1136236;-86
2021/01/28 21:08:55;;;;;;;4.57;2.00;;;;;;;-1.80;75.21;99214.22;5074910;56;1134979;-86
2021/01/28 21:14:16;;;;;;;10.17;2.30;;;;;;;-1.87;75.31;99214.14;5087574;56;1134037;-86
2021/01/28 21:19:22;;;;;;;3.73;1.53;;;;;;;-1.94;75.57;99213.58;5115194;56;21080;-86
2021/01/28 21:24:27;;;;;;;7.77;2.37;;;;;;;-1.99;75.87;99210.39;5088362;56;1130585;-86
2021/01/28 21:29:34;;;;;;;5.22;2.42;;;;;;;-2.02;75.92;99209.69;5063676;56;1134606;-86
2021/01/28 21:34:39;;;;;;;7.57;2.93;;;;;;;-2.07;76.08;99215.08;5053754;56;1134387;-86
2021/01/28 21:39:45;;;;;;;4.77;1.73;;;;;;;-2.08;76.20;99219.03;5145141;57;1132253;-86
2021/01/28 21:44:51;;;;;;;8.80;2.50;;;;;;;-2.09;76.32;99218.64;5065167;57;1134270;-86
2021/01/28 21:49:56;;;;;;;6.17;2.83;;;;;;;-2.09;76.38;99222.53;5065670;56;1134303;-85
2021/01/28 21:55:02;;;;;;;6.53;2.10;;;;;;;-2.12;76.48;99220.92;5077210;56;1134155;-85
2021/01/28 22:00:09;;;;;;;3.27;1.93;;;;;;;-2.14;76.65;99225.36;5071497;56;1134248;-85
2021/01/28 22:05:14;;;;;;;5.20;2.07;;;;;;;-2.15;76.57;99232.74;5062315;56;1134137;-85
2021/01/28 22:10:20;;;;;;;7.23;1.63;;;;;;;-2.17;76.72;99229.38;5068408;56;1134145;-85
2021/01/28 22:15:26;;;;;;;8.83;2.60;;;;;;;-2.20;76.74;99229.52;5075261;56;1134094;-85
2021/01/28 22:20:32;;;;;;;3.57;1.83;;;;;;;-2.24;76.78;99226.22;5076676;56;1134488;-85
2021/01/28 22:25:40;;;;;;;12.13;2.60;;;;;;;-2.27;76.92;99227.65;5073822;56;1134355;-86
2021/01/28 22:30:52;;;;;;;3.42;1.65;;;;;;;-2.31;77.05;99226.14;5070553;56;1137370;-85
2021/01/28 22:35:56;;;;;;;9.40;3.07;;;;;;;-2.35;77.13;99216.82;5075010;56;1134135;-85
2021/01/28 22:41:05;;;;;;;8.20;2.53;;;;;;;-2.36;77.12;99219.02;5074786;56;1134251;-85
2021/01/28 22:46:12;;;;;;;7.90;2.90;;;;;;;-2.38;77.26;99220.84;5081289;56;1134110;-85
2021/01/28 22:51:17;;;;;;;8.43;2.60;;;;;;;-2.40;77.15;99221.36;5080578;56;1134140;-85
2021/01/28 22:56:23;;;;;;;6.47;2.20;;;;;;;-2.39;77.25;99221.75;5093789;56;1134352;-85
2021/01/28 23:01:29;;;;;;;7.13;2.13;;;;;;;-2.40;77.33;99229.58;5119915;56;1131985;-85
2021/01/28 23:06:35;;;;;;;7.98;3.04;;;;;;;-2.40;77.39;99223.95;5085343;56;1134314;-87
2021/01/28 23:11:43;;;;;;;5.43;1.47;;;;;;;-2.37;77.59;99228.16;5088343;56;1134341;-85
2021/01/28 23:16:48;;;;;;;9.05;2.45;;;;;;;-2.31;77.90;99223.55;5058974;56;1134574;-85
2021/01/28 23:21:54;;;;;;;0.83;0.83;;;;;;;-2.28;77.96;99222.09;5062936;56;1134472;-85
2021/01/28 23:27:00;;;;;;;3.87;2.10;;;;;;;-2.24;78.10;99227.97;5068207;56;1134220;-85
2021/01/28 23:32:06;;;;;;;4.30;2.10;;;;;;;-2.21;78.16;99233.02;5078135;56;1134335;-85
2021/01/28 23:37:11;;;;;;;5.67;2.97;;;;;;;-2.18;78.18;99236.77;5073331;56;1134525;-85